Date,TemperatureHighF,TemperatureAvgF,TemperatureLowF,DewpointHighF,DewpointAvgF,DewpointLowF,HumidityHigh,HumidityAvg,HumidityLow,PressureMaxIn,PressureMinIn,WindSpeedMaxMPH,WindSpeedAvgMPH,GustSpeedMaxMPH,PrecipitationSumIn
2013-1-1,28.1,19.9,10.6,18.9,13.2,7.5,89,75,61,24.75,24.60,15,3,15,0.00
2013-1-2,26.7,15.7,5.4,15.0,9.1,2.4,88,75,57,24.79,24.68,10,2,10,0.00
2013-1-3,29.4,15.0,3.2,15.9,8.0,-0.5,88,75,52,24.87,24.75,10,1,10,0.00
2013-1-4,26.5,15.1,2.9,13.3,6.9,-1.6,85,71,52,24.84,24.71,8,1,8,0.00
2013-1-5,30.2,16.2,2.6,12.8,7.0,-1.4,86,68,43,24.90,24.77,7,1,7,0.00
2013-1-6,33.6,20.2,3.8,17.9,10.4,-0.8,84,67,46,24.87,24.59,11,2,11,0.00
2013-1-7,36.9,27.9,18.6,18.4,14.9,11.9,77,59,41,24.60,24.52,12,2,12,0.00
2013-1-8,37.8,24.3,10.0,18.4,13.4,5.0,84,64,43,24.79,24.56,12,2,12,0.00
2013-1-9,23.7,18.9,14.9,15.6,13.1,10.1,83,78,70,24.84,24.79,5,1,5,0.00
2013-2-8,59.4,45.9,36.2,23.3,19.0,2.3,53,37,10,24.54,24.28,37,17,37,0.00
2013-2-11,24.2,23.8,23.5,19.4,18.4,17.8,83,79,77,24.58,24.57,13,6,13,0.00
2013-2-12,34.9,26.5,18.2,19.9,12.9,6.3,84,59,31,24.70,24.58,33,10,33,0.00
2013-2-13,42.7,30.0,18.8,17.7,13.7,7.9,70,52,32,24.72,24.63,31,7,31,0.00
2013-2-14,44.7,34.2,21.1,21.3,17.8,13.3,72,53,32,24.75,24.64,40,10,40,0.00
2013-2-15,47.2,36.6,26.2,19.0,15.3,9.4,68,44,22,24.87,24.75,29,10,29,0.00
2013-2-16,50.9,37.0,21.0,15.9,11.6,5.2,64,37,19,24.93,24.68,13,3,13,0.00
2013-2-17,56.7,39.5,20.8,19.4,10.7,-0.4,65,35,10,24.68,24.32,42,5,42,0.00
2013-2-18,43.1,34.9,23.7,19.7,2.5,-11.4,47,27,10,24.66,24.40,32,10,32,0.00
2013-2-19,24.6,22.6,19.9,8.7,0.7,-5.3,53,38,30,24.61,24.53,23,5,23,0.00
2013-2-26,37.4,32.1,27.7,8.7,4.5,-1.4,44,31,19,24.64,24.49,42,17,42,0.00
2013-2-27,27.6,23.4,20.7,13.1,9.5,7.8,64,55,44,24.78,24.64,22,6,22,0.00
2013-3-5,57.8,46.6,39.7,11.8,8.9,5.2,30,22,13,24.67,24.64,14,6,14,0.00
2013-3-6,66.0,49.6,33.5,21.5,12.4,-0.8,50,25,7,24.67,24.48,25,6,25,0.00
2013-3-7,67.0,51.8,37.8,19.5,11.4,2.9,38,21,8,24.60,24.44,21,5,21,0.00
2013-3-8,56.7,43.4,35.5,37.3,24.2,6.8,88,52,20,24.51,24.30,41,7,43,0.04
2013-3-9,39.6,35.1,28.4,31.9,25.1,18.2,87,67,52,24.54,24.31,31,10,31,0.00
2013-3-10,50.1,39.4,29.4,27.5,17.7,11.0,80,45,24,24.70,24.53,35,17,35,0.00
2013-3-11,39.7,34.9,30.2,19.2,18.2,17.0,61,51,41,24.70,24.67,29,6,34,0.00